Weather reports worldwide

Advertisment
Manchester/Intl, United Kingdom (3334): temperature & dewpoint: 09.12.2019 18:00:00 - 15.12.2019 18:00:00 (GMT)Manchester/Intl, United Kingdom (3334): wind speed: 09.12.2019 18:00:00 - 15.12.2019 18:00:00 (GMT)Manchester/Intl, United Kingdom (3334): wind direction: 09.12.2019 18:00:00 - 15.12.2019 18:00:00 (GMT)Manchester/Intl, United Kingdom (3334): visibility: 09.12.2019 18:00:00 - 15.12.2019 18:00:00 (GMT)
Date & Time tt [°C] td [°C] ff [km/h] ff [kn] dd vv [km]
15.12.2019 18:00:00 4,0 2,0 13 7 S 10
15.12.2019 17:00:00 5,0 2,0 13 7 S 10
15.12.2019 16:00:00 5,0 2,0 15 8 S 10
15.12.2019 15:00:00 5,0 3,0 9 5 S 10
15.12.2019 14:00:00 5,0 2,0 9 5 S 10
15.12.2019 13:00:00 5,0 1,0 8 4 S 10
15.12.2019 12:00:00 5,0 1,0 9 5 SSW 10
15.12.2019 11:00:00 6,0 1,0 15 8 SW 10
15.12.2019 10:00:00 4,0 0,0 13 7 SW 10
15.12.2019 09:00:00 3,0 0,0 15 8 SW 10
15.12.2019 08:00:00 4,0 0,0 18 10 WSW 10
15.12.2019 07:00:00 4,0 -1,0 22 12 WSW 10
15.12.2019 06:00:00 4,0 0,0 21 11 SW 10
15.12.2019 05:00:00 4,0 0,0 21 11 SW 10
15.12.2019 04:00:00 4,0 1,0 16 9 SSW 10
15.12.2019 03:00:00 4,0 1,0 21 11 SW 10
15.12.2019 02:00:00 4,0 2,0 13 7 SSW 10
15.12.2019 01:00:00 4,0 3,0 16 9 SSW 10
15.12.2019 00:00:00 4,0 3,0 11 6 S 10
14.12.2019 23:00:00 4,0 2,0 11 6 S 10
14.12.2019 22:00:00 3,0 2,0 9 5 S 10
14.12.2019 21:00:00 2,0 2,0 8 4 S 6
14.12.2019 20:00:00 4,0 2,0 11 6 S 5
14.12.2019 19:00:00 5,0 1,0 18 10 SSW 10
14.12.2019 18:00:00 5,0 0,0 9 5 SSW 10
14.12.2019 17:00:00 5,0 0,0 11 6 SW 10
14.12.2019 16:00:00 5,0 0,0 16 9 SW 10
14.12.2019 15:00:00 5,0 0,0 24 13 SW 10
14.12.2019 14:00:00 6,0 0,0 22 12 SW 10
14.12.2019 13:00:00 5,0 1,0 28 15 WSW 10
14.12.2019 12:00:00 5,0 1,0 29 16 WSW 10
14.12.2019 11:00:00 3,0 1,0 16 9 SSW 10
14.12.2019 10:00:00 5,0 1,0 15 8 SSW 10
14.12.2019 09:00:00 3,0 0,0 9 5 SSW 10
14.12.2019 08:00:00 4,0 -1,0 29 16 WSW 10
14.12.2019 07:00:00 5,0 0,0 29 16 WSW 10
14.12.2019 06:00:00 5,0 0,0 35 19 WSW 10
14.12.2019 05:00:00 5,0 2,0 29 16 WSW 10
14.12.2019 04:00:00 5,0 1,0 39 21 WSW 10
14.12.2019 03:00:00 5,0 3,0 21 11 WSW 10
14.12.2019 02:00:00 5,0 3,0 28 15 WSW 10
14.12.2019 01:00:00 4,0 2,0 8 4 SW 9
14.12.2019 00:00:00 3,0 1,0 11 6 SSW 10
13.12.2019 23:00:00 4,0 2,0 16 9 SW 10
13.12.2019 22:00:00 5,0 2,0 13 7 SW 10
13.12.2019 21:00:00 5,0 2,0 13 7 SW 10
13.12.2019 20:00:00 5,0 2,0 11 6 SW 10
13.12.2019 19:00:00 5,0 3,0 16 9 SW 10
13.12.2019 18:00:00 5,0 4,0 22 12 SW 7
13.12.2019 17:00:00 5,0 4,0 26 14 WSW 7
13.12.2019 16:00:00 6,0 5,0 34 18 WSW 8
13.12.2019 15:00:00 6,0 5,0 31 17 WSW 5
13.12.2019 14:00:00 6,0 5,0 31 17 WSW 6
13.12.2019 13:00:00 6,0 5,0 29 16 WSW 10
13.12.2019 12:00:00 6,0 5,0 28 15 WSW 10
13.12.2019 11:00:00 6,0 5,0 35 19 WSW 7
13.12.2019 10:00:00 7,0 5,0 29 16 WSW 9
13.12.2019 09:00:00 7,0 5,0 24 13 W 10
13.12.2019 08:00:00 6,0 5,0 26 14 W 9
13.12.2019 07:00:00 6,0 5,0 24 13 W 10
13.12.2019 06:00:00 5,0 4,0 13 7 WSW 10
13.12.2019 05:00:00 6,0 5,0 24 13 W 7
13.12.2019 04:00:00 6,0 5,0 21 11 W 6
13.12.2019 03:00:00 5,0 4,0 13 7 WSW 10
13.12.2019 02:00:00 5,0 5,0 11 6 W 4,3
13.12.2019 01:00:00 5,0 5,0 9 5 SW 10
13.12.2019 00:00:00 5,0 5,0 9 5 SSW 10
12.12.2019 23:00:00 5,0 5,0 8 4 S 10
12.12.2019 22:00:00 6,0 5,0 8 4 S 10
12.12.2019 21:00:00 7,0 6,0 11 6 SW 10
12.12.2019 20:00:00 6,0 6,0 11 6 SSW 10
12.12.2019 19:00:00 6,0 6,0 9 5 SSW 10
12.12.2019 18:00:00 7,0 6,0 15 8 SW 7
12.12.2019 17:00:00 7,0 6,0 11 6 SSW 10
12.12.2019 16:00:00 7,0 6,0 11 6 SW 5
12.12.2019 15:00:00 6,0 5,0 8 4 S 7
12.12.2019 14:00:00 6,0 5,0 11 6 SSE 9
12.12.2019 13:00:00 6,0 4,0 13 7 SSE 7
12.12.2019 12:00:00 5,0 4,0 15 8 SE 10
12.12.2019 11:00:00 5,0 3,0 16 9 SE 10
12.12.2019 10:00:00 4,0 3,0 18 10 SSE 10
12.12.2019 09:00:00 4,0 2,0 13 7 SSE 6
12.12.2019 08:00:00 3,0 2,0 11 6 - 10
12.12.2019 07:00:00 3,0 1,0 9 5 SE 10
12.12.2019 06:00:00 2,0 0,0 9 5 SSE 10
12.12.2019 05:00:00 2,0 0,0 9 5 S 10
12.12.2019 04:00:00 2,0 0,0 9 5 S 10
12.12.2019 03:00:00 1,0 0,0 8 4 S 10
12.12.2019 02:00:00 1,0 0,0 8 4 S 10
12.12.2019 01:00:00 1,0 0,0 9 5 S 10
12.12.2019 00:00:00 1,0 0,0 9 5 S 10
11.12.2019 23:00:00 1,0 0,0 11 6 S 10
11.12.2019 22:00:00 2,0 0,0 11 6 SSW 10
11.12.2019 21:00:00 2,0 0,0 9 5 SSW 10
11.12.2019 20:00:00 2,0 1,0 9 5 SSW 10
11.12.2019 19:00:00 3,0 1,0 4 2 - 10
11.12.2019 18:00:00 2,0 1,0 8 4 SSW 10
11.12.2019 17:00:00 3,0 2,0 8 4 SSW 10
11.12.2019 16:00:00 3,0 2,0 9 5 SSW 10
11.12.2019 15:00:00 5,0 3,0 11 6 SSW 10
11.12.2019 14:00:00 5,0 3,0 9 5 SSW 10
11.12.2019 13:00:00 5,0 3,0 13 7 SSW 10
11.12.2019 12:00:00 5,0 3,0 11 6 S 10
11.12.2019 11:00:00 6,0 3,0 15 8 SSW 10
11.12.2019 10:00:00 4,0 2,0 11 6 S 10
11.12.2019 09:00:00 4,0 2,0 9 5 S 10
11.12.2019 08:00:00 4,0 2,0 8 4 S 10
11.12.2019 07:00:00 4,0 2,0 9 5 S 10
11.12.2019 06:00:00 3,0 1,0 9 5 S 10
11.12.2019 05:00:00 4,0 2,0 13 7 S 10
11.12.2019 04:00:00 4,0 1,0 11 6 S 10
11.12.2019 03:00:00 4,0 1,0 11 6 SSW 10
11.12.2019 02:00:00 4,0 2,0 15 8 SSW 10
11.12.2019 01:00:00 5,0 2,0 16 9 SSW 10
11.12.2019 00:00:00 4,0 2,0 9 5 S 10
10.12.2019 23:00:00 4,0 2,0 11 6 S 10
10.12.2019 22:00:00 5,0 3,0 13 7 SSW 10
10.12.2019 21:00:00 6,0 3,0 21 11 WSW 10
10.12.2019 20:00:00 6,0 4,0 22 12 WSW 10
10.12.2019 19:00:00 7,0 5,0 42 23 W 9
10.12.2019 18:00:00 8,0 7,0 31 17 W 10
10.12.2019 17:00:00 12,0 11,0 26 14 S 3,9
10.12.2019 16:00:00 12,0 11,0 26 14 S 6
10.12.2019 15:00:00 12,0 10,0 26 14 S 5
10.12.2019 14:00:00 11,0 9,0 26 14 S 10
10.12.2019 13:00:00 11,0 8,0 24 13 S 10
10.12.2019 12:00:00 10,0 8,0 26 14 S 10
10.12.2019 11:00:00 9,0 7,0 22 12 S 10
10.12.2019 10:00:00 8,0 6,0 22 12 S 10
10.12.2019 09:00:00 7,0 5,0 22 12 S 10
10.12.2019 08:00:00 7,0 4,0 18 10 S 10
10.12.2019 07:00:00 6,0 3,0 15 8 S 10
10.12.2019 06:00:00 5,0 3,0 16 9 S 10
10.12.2019 05:00:00 5,0 2,0 15 8 - 10
10.12.2019 04:00:00 5,0 2,0 11 6 S 10
10.12.2019 03:00:00 4,0 1,0 9 5 S 10
10.12.2019 02:00:00 3,0 1,0 9 5 - 10
10.12.2019 01:00:00 3,0 1,0 5 3 - 10
10.12.2019 00:00:00 2,0 0,0 8 4 S 10
09.12.2019 23:00:00 3,0 1,0 8 4 S 10
09.12.2019 22:00:00 3,0 1,0 9 5 S 10
09.12.2019 21:00:00 3,0 1,0 8 4 S 10
09.12.2019 20:00:00 2,0 0,0 8 4 SSE 10
09.12.2019 19:00:00 3,0 0,0 5 3 SSW 10
09.12.2019 18:00:00 4,0 1,0 4 2 - 10

tt = temperature
td = dewpoint
ff = wind speed
dd = wind direction
vv = visibility

Next stations